createdAt,value
2019-02-16T00:00:22.155Z,68.20
2019-02-16T00:02:50.837Z,68.68
2019-02-16T00:05:19.461Z,68.68
2019-02-16T00:07:48.030Z,67.63
2019-02-16T00:10:16.625Z,67.63
2019-02-16T00:12:45.130Z,67.77
2019-02-16T00:15:13.838Z,67.77
2019-02-16T00:17:42.517Z,68.32
2019-02-16T00:20:11.229Z,68.95
2019-02-16T00:22:39.865Z,68.78
2019-02-16T00:25:08.533Z,68.78
2019-02-16T00:27:37.095Z,68.66
2019-02-16T00:30:07.022Z,68.66
2019-02-16T00:32:38.591Z,68.96
2019-02-16T00:35:07.248Z,69.24
2019-02-16T00:37:35.808Z,69.38
2019-02-16T00:40:06.769Z,69.70
2019-02-16T00:42:35.271Z,69.70
2019-02-16T00:45:04.920Z,69.81
2019-02-16T00:47:33.544Z,69.29
2019-02-16T00:50:02.190Z,69.29
2019-02-16T00:52:30.676Z,69.37
2019-02-16T00:54:59.275Z,69.17
2019-02-16T00:57:27.910Z,69.17
2019-02-16T00:59:56.467Z,69.29
2019-02-16T01:02:25.136Z,69.52
2019-02-16T01:04:53.661Z,69.43
2019-02-16T01:07:22.217Z,69.43
2019-02-16T01:09:50.884Z,69.32
2019-02-16T01:12:19.453Z,69.32
2019-02-16T01:14:48.091Z,69.84
2019-02-16T01:17:16.616Z,69.51
2019-02-16T01:19:45.232Z,69.51
2019-02-16T01:22:13.832Z,69.63
2019-02-16T01:24:42.566Z,69.42
2019-02-16T01:27:11.100Z,69.27
2019-02-16T01:29:39.731Z,69.47
2019-02-16T01:32:08.322Z,69.24
2019-02-16T01:34:36.894Z,69.58
2019-02-16T01:37:05.536Z,69.55
2019-02-16T01:39:34.202Z,69.55
2019-02-16T01:42:02.762Z,69.23
2019-02-16T01:44:31.326Z,69.23
2019-02-16T01:46:59.938Z,70.16
2019-02-16T01:49:28.491Z,70.17
2019-02-16T01:51:57.091Z,70.17
2019-02-16T01:54:25.687Z,70.33
2019-02-16T01:56:54.348Z,70.18
2019-02-16T01:59:22.973Z,70.50
2019-02-16T02:01:51.503Z,70.48
2019-02-16T02:04:20.093Z,70.32
2019-02-16T02:06:48.726Z,70.07
2019-02-16T02:09:17.468Z,69.94
2019-02-16T02:11:45.957Z,70.12
2019-02-16T02:14:14.456Z,70.12
2019-02-16T02:16:43.099Z,69.71
2019-02-16T02:19:11.743Z,69.87
2019-02-16T02:21:41.473Z,70.04
2019-02-16T02:24:10.131Z,70.15
2019-02-16T02:26:38.691Z,70.27
2019-02-16T02:29:07.286Z,70.38
2019-02-16T02:31:37.523Z,70.76
2019-02-16T02:34:07.881Z,70.76
2019-02-16T02:36:36.379Z,70.80
2019-02-16T02:39:05.855Z,70.80
2019-02-16T02:41:34.492Z,71.11
2019-02-16T02:44:03.260Z,71.11
2019-02-16T02:46:32.782Z,71.12
2019-02-16T02:49:01.269Z,71.53
2019-02-16T02:51:29.909Z,71.53
2019-02-16T02:53:58.508Z,71.72
2019-02-16T02:56:26.986Z,71.86
2019-02-16T02:58:55.557Z,71.82
2019-02-16T03:01:24.289Z,71.82
2019-02-16T03:03:53.117Z,71.95
2019-02-16T03:06:21.831Z,71.95
2019-02-16T03:08:50.444Z,72.02
2019-02-16T03:11:18.999Z,72.02
2019-02-16T03:13:47.627Z,72.00
2019-02-16T03:16:16.288Z,71.85
2019-02-16T03:18:44.773Z,72.21
2019-02-16T03:21:13.423Z,72.21
2019-02-16T03:23:41.966Z,72.54
2019-02-16T03:26:16.454Z,72.54
2019-02-16T03:28:53.826Z,72.67
2019-02-16T03:31:37.162Z,72.35
2019-02-16T03:34:08.740Z,72.46
2019-02-16T03:36:49.223Z,72.91
2019-02-16T03:39:17.812Z,72.51
2019-02-16T03:41:46.378Z,72.12
2019-02-16T03:44:15.021Z,72.12
2019-02-16T03:46:43.736Z,72.71
2019-02-16T03:49:12.292Z,72.85
2019-02-16T03:51:40.924Z,72.85
2019-02-16T03:54:09.510Z,72.70
2019-02-16T03:56:37.995Z,72.77
2019-02-16T03:59:06.627Z,72.87
2019-02-16T04:01:35.226Z,72.87
2019-02-16T04:04:03.856Z,72.99
2019-02-16T04:06:32.468Z,73.05
2019-02-16T04:09:01.130Z,73.11
2019-02-16T04:11:29.688Z,72.81
2019-02-16T04:13:58.316Z,72.58
2019-02-16T04:16:26.851Z,73.00
2019-02-16T04:18:55.486Z,73.00
2019-02-16T04:21:24.052Z,72.83
2019-02-16T04:23:52.651Z,73.25
2019-02-16T04:26:21.286Z,73.25
2019-02-16T04:28:49.850Z,73.19
2019-02-16T04:31:18.539Z,73.19
2019-02-16T04:33:47.127Z,73.01
2019-02-16T04:36:15.666Z,73.01
2019-02-16T04:38:44.252Z,72.67
2019-02-16T04:41:12.843Z,72.71
2019-02-16T04:43:41.406Z,73.05
2019-02-16T04:46:09.999Z,73.31
2019-02-16T04:48:38.547Z,73.27
2019-02-16T04:51:07.032Z,73.19
2019-02-16T04:53:35.623Z,73.19
2019-02-16T04:56:04.189Z,73.51
2019-02-16T04:58:32.687Z,73.87
2019-02-16T05:01:01.289Z,73.91
2019-02-16T05:03:29.773Z,74.04
2019-02-16T05:05:59.793Z,73.82
2019-02-16T05:08:28.716Z,73.79
2019-02-16T05:10:57.359Z,73.67
2019-02-16T05:13:25.908Z,73.93
2019-02-16T05:15:54.496Z,73.93
2019-02-16T05:18:22.995Z,74.01
2019-02-16T05:20:51.621Z,73.84
2019-02-16T05:23:20.145Z,73.84
2019-02-16T05:25:50.915Z,73.97
2019-02-16T05:28:19.020Z,73.65
2019-02-16T05:30:47.608Z,73.63
2019-02-16T05:33:16.225Z,73.65
2019-02-16T05:35:44.855Z,73.56
2019-02-16T05:38:13.461Z,73.25
2019-02-16T05:40:42.084Z,73.25
2019-02-16T05:43:10.836Z,73.46
2019-02-16T05:45:39.599Z,73.83
2019-02-16T05:48:08.164Z,73.84
2019-02-16T05:50:36.747Z,73.75
2019-02-16T05:53:05.365Z,73.98
2019-02-16T05:55:33.929Z,73.84
2019-02-16T05:58:02.597Z,73.60
2019-02-16T06:00:32.098Z,73.70
2019-02-16T06:03:00.598Z,73.28
2019-02-16T06:05:29.160Z,73.37
2019-02-16T06:07:57.740Z,73.37
2019-02-16T06:10:27.944Z,73.33
2019-02-16T06:12:56.482Z,72.91
2019-02-16T06:15:25.135Z,72.72
2019-02-16T06:17:53.636Z,72.84
2019-02-16T06:20:23.826Z,72.84
2019-02-16T06:22:52.384Z,72.41
2019-02-16T06:25:20.963Z,72.38
2019-02-16T06:27:49.519Z,72.40
2019-02-16T06:30:18.068Z,72.11
2019-02-16T06:32:46.946Z,72.00
2019-02-16T06:35:17.150Z,71.85
2019-02-16T06:37:45.674Z,71.77
2019-02-16T06:40:14.184Z,71.77
2019-02-16T06:42:42.685Z,71.71
2019-02-16T06:45:11.336Z,71.71
2019-02-16T06:47:39.978Z,71.32
2019-02-16T06:50:08.618Z,71.11
2019-02-16T06:52:37.140Z,70.85
2019-02-16T06:55:06.180Z,70.55
2019-02-16T06:57:34.663Z,70.31
2019-02-16T07:00:04.201Z,70.29
2019-02-16T07:02:32.775Z,69.76
2019-02-16T07:05:01.273Z,69.18
2019-02-16T07:07:29.863Z,69.18
2019-02-16T07:10:03.030Z,68.43
2019-02-16T07:12:31.520Z,68.00
2019-02-16T07:15:00.360Z,67.42
2019-02-16T07:17:39.441Z,66.55
2019-02-16T07:20:11.641Z,66.53
2019-02-16T07:22:40.255Z,66.53
2019-02-16T07:25:08.897Z,65.54
2019-02-16T07:27:37.433Z,65.54
2019-02-16T07:30:08.999Z,65.06
2019-02-16T07:32:37.719Z,64.57
2019-02-16T07:35:11.237Z,64.62
2019-02-16T07:37:41.404Z,65.07
2019-02-16T07:40:10.074Z,64.15
2019-02-16T07:42:49.329Z,63.51
2019-02-16T07:45:21.397Z,63.17
2019-02-16T07:47:53.078Z,62.88
2019-02-16T07:50:25.703Z,62.07
2019-02-16T07:52:55.947Z,62.07
2019-02-16T07:55:38.385Z,61.75
2019-02-16T07:58:08.651Z,61.50
2019-02-16T08:00:44.668Z,60.84
2019-02-16T08:03:14.852Z,60.75
2019-02-16T08:05:47.762Z,60.34
2019-02-16T08:08:29.790Z,61.11
2019-02-16T08:11:05.845Z,60.15
2019-02-16T08:13:52.488Z,59.69
2019-02-16T08:16:22.751Z,59.63
2019-02-16T08:18:59.169Z,59.01
2019-02-16T08:21:38.410Z,58.17
2019-02-16T08:24:11.653Z,58.65
2019-02-16T08:26:56.796Z,59.02
2019-02-16T08:29:43.419Z,58.06
2019-02-16T08:32:29.787Z,57.29
2019-02-16T08:34:59.954Z,56.45
2019-02-16T08:37:46.427Z,55.05
2019-02-16T08:40:19.746Z,55.08
2019-02-16T08:43:05.064Z,54.96
2019-02-16T08:45:47.621Z,53.54
2019-02-16T08:48:20.524Z,52.56
2019-02-16T08:50:59.610Z,52.83
2019-02-16T08:53:29.813Z,52.16
2019-02-16T08:56:06.038Z,52.84
2019-02-16T08:58:44.832Z,52.32
2019-02-16T09:01:27.435Z,51.61
2019-02-16T09:03:57.371Z,52.42
2019-02-16T09:06:36.317Z,50.81
2019-02-16T09:09:07.487Z,50.99
2019-02-16T09:11:37.749Z,51.38
2019-02-16T09:14:14.141Z,51.03
2019-02-16T09:17:05.021Z,51.27
2019-02-16T09:19:37.765Z,51.37
2019-02-16T09:22:08.024Z,52.17
2019-02-16T09:24:54.254Z,52.75
2019-02-16T09:27:39.471Z,52.11
2019-02-16T09:30:12.373Z,51.39
2019-02-16T09:32:57.618Z,50.18
2019-02-16T09:35:40.125Z,49.68
2019-02-16T09:38:10.399Z,48.24
2019-02-16T09:40:55.712Z,48.92
2019-02-16T09:43:25.842Z,48.84
2019-02-16T09:45:58.793Z,47.54
2019-02-16T09:48:44.014Z,46.65
2019-02-16T09:51:16.831Z,46.14
2019-02-16T09:54:07.958Z,46.33
2019-02-16T09:56:32.958Z,46.19
2019-02-16T09:59:03.193Z,46.39
2019-02-16T10:01:42.533Z,45.98
2019-02-16T10:04:15.629Z,45.71
2019-02-16T10:06:54.635Z,44.76
2019-02-16T10:09:24.911Z,43.98
2019-02-16T10:11:57.817Z,44.97
2019-02-16T10:14:36.841Z,46.16
2019-02-16T10:17:16.043Z,45.21
2019-02-16T10:19:46.199Z,43.35
2019-02-16T10:22:22.091Z,42.64
2019-02-16T10:25:03.955Z,41.83
2019-02-16T10:27:34.230Z,40.95
2019-02-16T10:30:04.505Z,41.16
2019-02-16T10:32:50.322Z,39.17
2019-02-16T10:35:37.027Z,40.47
2019-02-16T10:38:25.134Z,40.38
2019-02-16T10:41:11.265Z,39.99
2019-02-16T10:43:50.804Z,42.54
2019-02-16T10:46:38.435Z,40.94
2019-02-16T10:49:08.757Z,39.88
2019-02-16T10:51:50.901Z,38.75
2019-02-16T10:54:29.609Z,38.43
2019-02-16T10:57:17.169Z,38.15
2019-02-16T10:59:49.930Z,38.70
2019-02-16T11:02:20.117Z,39.28
2019-02-16T11:04:57.029Z,38.54
2019-02-16T11:07:29.932Z,38.63
2019-02-16T11:10:03.195Z,38.48
2019-02-16T11:12:33.489Z,38.63
2019-02-16T11:15:21.003Z,38.80
2019-02-16T11:17:55.830Z,38.33
2019-02-16T11:20:50.736Z,37.11
2019-02-16T11:23:21.011Z,35.93
2019-02-16T11:25:51.210Z,35.61
2019-02-16T11:28:24.093Z,35.19
2019-02-16T11:30:56.700Z,35.36
2019-02-16T11:33:26.975Z,35.62
2019-02-16T11:36:13.461Z,37.37
2019-02-16T11:39:03.989Z,35.32
2019-02-16T11:41:34.315Z,36.10
2019-02-16T11:44:04.589Z,37.44
2019-02-16T11:46:37.443Z,37.44
2019-02-16T11:49:13.530Z,35.69
2019-02-16T11:51:44.900Z,36.01
2019-02-16T11:54:28.897Z,36.12
2019-02-16T11:57:03.412Z,35.22
2019-02-16T11:59:37.351Z,33.33
2019-02-16T12:05:10.420Z,32.26
2019-02-16T12:07:43.872Z,32.28
2019-02-16T12:10:14.771Z,32.83
2019-02-16T12:12:56.989Z,32.26
2019-02-16T12:15:41.404Z,31.19
2019-02-16T12:18:27.918Z,30.15
2019-02-16T12:20:58.193Z,28.54
2019-02-16T12:23:46.074Z,30.05
2019-02-16T12:26:21.970Z,31.21
2019-02-16T12:28:59.374Z,32.46
2019-02-16T12:31:31.096Z,31.62
2019-02-16T12:34:10.105Z,32.25
2019-02-16T12:36:43.086Z,31.68
2019-02-16T12:39:20.581Z,31.46
2019-02-16T12:42:10.512Z,31.79
2019-02-16T12:44:40.730Z,31.95
2019-02-16T12:47:13.816Z,30.87
2019-02-16T12:49:52.942Z,31.20
2019-02-16T12:52:39.538Z,32.53
2019-02-16T12:55:18.940Z,33.66
2019-02-16T12:57:51.298Z,33.95
2019-02-16T13:00:30.209Z,34.91
2019-02-16T13:03:06.076Z,34.72
2019-02-16T13:05:52.601Z,35.22
2019-02-16T13:08:28.795Z,36.14
2019-02-16T13:11:05.050Z,36.51
2019-02-16T13:13:40.684Z,34.57
2019-02-16T13:16:10.991Z,34.00
2019-02-16T13:18:57.407Z,32.81
2019-02-16T13:21:27.723Z,35.48
2019-02-16T13:24:07.099Z,34.09
2019-02-16T13:26:43.149Z,33.41
2019-02-16T13:29:24.908Z,31.45
2019-02-16T13:32:07.139Z,30.62
2019-02-16T13:34:53.531Z,29.63
2019-02-16T13:37:29.513Z,30.75
2019-02-16T13:39:59.703Z,30.63
2019-02-16T13:42:29.915Z,30.63
2019-02-16T13:45:16.381Z,30.10
2019-02-16T13:47:55.173Z,29.79
2019-02-16T13:50:28.009Z,28.70
2019-02-16T13:53:03.774Z,29.81
2019-02-16T13:55:36.849Z,30.89
2019-02-16T13:58:09.704Z,32.58
2019-02-16T14:00:46.015Z,32.37
2019-02-16T14:03:18.959Z,33.14
2019-02-16T14:05:49.235Z,33.38
2019-02-16T14:08:35.583Z,33.75
2019-02-16T14:11:05.795Z,35.39
2019-02-16T14:13:53.963Z,34.42
2019-02-16T14:16:24.244Z,34.17
2019-02-16T14:18:52.925Z,37.30
2019-02-16T14:21:21.607Z,36.35
2019-02-16T14:23:50.121Z,35.17
2019-02-16T14:26:18.664Z,35.05
2019-02-16T14:28:48.537Z,34.96
2019-02-16T14:31:28.281Z,34.57
2019-02-16T14:33:53.301Z,34.75
2019-02-16T14:36:23.337Z,35.02
2019-02-16T14:38:56.298Z,36.11
2019-02-16T14:41:26.393Z,37.48
2019-02-16T14:43:54.967Z,38.50
2019-02-16T14:46:23.591Z,41.15
2019-02-16T14:48:52.273Z,41.52
2019-02-16T14:51:20.846Z,40.96
2019-02-16T14:53:50.870Z,40.04
2019-02-16T14:56:19.472Z,40.20
2019-02-16T14:58:49.714Z,40.43
2019-02-16T15:01:19.977Z,40.84
2019-02-16T15:03:50.192Z,40.65
2019-02-16T15:06:20.373Z,40.54
2019-02-16T15:08:50.727Z,39.88
2019-02-16T15:11:21.018Z,39.04
2019-02-16T15:13:51.235Z,37.95
2019-02-16T15:16:21.442Z,37.63
2019-02-16T15:18:51.579Z,37.31
2019-02-16T15:21:21.580Z,37.22
2019-02-16T15:23:51.876Z,36.84
2019-02-16T15:26:28.322Z,35.63
2019-02-16T15:28:54.080Z,35.71
2019-02-16T15:31:22.645Z,36.23
2019-02-16T15:33:51.276Z,37.22
2019-02-16T15:36:23.958Z,37.40
2019-02-16T15:38:51.698Z,38.30
2019-02-16T15:41:23.954Z,39.48
2019-02-16T15:43:52.442Z,41.06
2019-02-16T15:46:25.689Z,41.47
2019-02-16T15:48:54.512Z,42.30
2019-02-16T15:51:24.680Z,43.46
2019-02-16T15:53:55.731Z,44.02
2019-02-16T15:56:24.649Z,44.27
2019-02-16T15:58:53.571Z,44.79
2019-02-16T16:01:23.807Z,44.78
2019-02-16T16:03:52.487Z,45.21
2019-02-16T16:06:24.101Z,46.08
2019-02-16T16:08:56.744Z,46.99
2019-02-16T16:11:31.226Z,47.56
2019-02-16T16:14:04.037Z,47.90
2019-02-16T16:16:37.254Z,48.23
2019-02-16T16:19:17.981Z,47.99
2019-02-16T16:21:51.218Z,49.16
2019-02-16T16:24:24.010Z,49.24
2019-02-16T16:26:56.829Z,49.09
2019-02-16T16:29:43.374Z,49.20
2019-02-16T16:32:29.879Z,50.12
2019-02-16T16:35:02.889Z,50.05
2019-02-16T16:37:35.820Z,50.43
2019-02-16T16:40:06.655Z,50.58
2019-02-16T16:42:39.700Z,50.65
2019-02-16T16:45:28.081Z,50.48
2019-02-16T16:48:13.471Z,51.04
2019-02-16T16:50:43.666Z,51.56
2019-02-16T16:53:23.010Z,52.11
2019-02-16T16:56:03.210Z,52.49
2019-02-16T16:58:45.448Z,51.86
2019-02-16T17:01:32.062Z,53.16
2019-02-16T17:04:02.323Z,52.92
2019-02-16T17:06:49.711Z,53.60
2019-02-16T17:09:20.912Z,54.76
2019-02-16T17:11:57.014Z,55.05
2019-02-16T17:14:42.332Z,55.42
2019-02-16T17:17:19.024Z,55.87
2019-02-16T17:19:52.640Z,55.77
2019-02-16T17:22:33.025Z,55.98
2019-02-16T17:25:04.681Z,56.48
2019-02-16T17:27:40.963Z,56.69
2019-02-16T17:30:16.568Z,56.72
2019-02-16T17:32:59.940Z,56.90
2019-02-16T17:35:38.874Z,56.94
2019-02-16T17:38:17.942Z,56.79
2019-02-16T17:40:51.862Z,57.85
2019-02-16T17:43:25.049Z,57.86
2019-02-16T17:46:02.859Z,58.32
2019-02-16T17:48:42.108Z,58.74
2019-02-16T17:51:12.508Z,58.93
2019-02-16T17:53:47.056Z,58.93
2019-02-16T17:56:17.766Z,59.03
2019-02-16T17:58:49.472Z,58.41
2019-02-16T18:01:33.096Z,58.53
2019-02-16T18:04:15.150Z,58.84
2019-02-16T18:06:51.584Z,59.27
2019-02-16T18:09:38.181Z,59.74
2019-02-16T18:12:26.776Z,59.58
2019-02-16T18:14:57.005Z,59.56
2019-02-16T18:17:36.369Z,59.48
2019-02-16T18:20:07.286Z,59.00
2019-02-16T18:22:55.626Z,59.00
2019-02-16T18:25:28.403Z,58.87
2019-02-16T18:28:13.917Z,59.21
2019-02-16T18:30:56.215Z,59.69
2019-02-16T18:33:26.422Z,59.91
2019-02-16T18:35:59.169Z,60.11
2019-02-16T18:38:32.165Z,59.78
2019-02-16T18:41:02.322Z,59.82
2019-02-16T18:43:35.311Z,59.86
2019-02-16T18:46:09.566Z,60.21
2019-02-16T18:48:43.282Z,60.21
2019-02-16T18:51:25.797Z,60.13
2019-02-16T18:53:56.163Z,60.13
2019-02-16T18:56:42.667Z,60.94
2019-02-16T18:59:27.703Z,60.94
2019-02-16T19:02:03.813Z,60.07
2019-02-16T19:04:47.353Z,60.28
2019-02-16T19:07:17.661Z,60.00
2019-02-16T19:09:57.025Z,60.38
2019-02-16T19:12:27.265Z,60.38
2019-02-16T19:15:01.981Z,60.37
2019-02-16T19:17:34.547Z,61.03
2019-02-16T19:20:16.768Z,61.12
2019-02-16T19:22:52.865Z,60.67
2019-02-16T19:25:29.211Z,61.23
2019-02-16T19:27:59.525Z,62.13
2019-02-16T19:30:36.840Z,62.29
2019-02-16T19:33:07.146Z,61.52
2019-02-16T19:35:37.451Z,62.11
2019-02-16T19:38:08.028Z,62.31
2019-02-16T19:40:44.057Z,62.84
2019-02-16T19:43:19.784Z,62.84
2019-02-16T19:45:52.483Z,63.92
2019-02-16T19:48:42.761Z,63.92
2019-02-16T19:51:23.209Z,64.35
2019-02-16T19:53:53.368Z,63.94
2019-02-16T19:56:26.222Z,63.83
2019-02-16T19:59:00.372Z,64.08
2019-02-16T20:01:48.077Z,63.72
2019-02-16T20:04:33.626Z,63.58
2019-02-16T20:07:03.820Z,63.62
2019-02-16T20:09:39.841Z,63.55
2019-02-16T20:12:11.516Z,64.37
2019-02-16T20:14:41.719Z,64.52
2019-02-16T20:17:11.883Z,64.84
2019-02-16T20:19:47.986Z,64.65
2019-02-16T20:22:18.355Z,64.53
2019-02-16T20:24:48.647Z,64.57
2019-02-16T20:27:21.395Z,64.21
2019-02-16T20:29:55.741Z,64.48
2019-02-16T20:32:31.824Z,64.89
2019-02-16T20:35:02.085Z,64.76
2019-02-16T20:37:33.786Z,64.91
2019-02-16T20:40:16.058Z,64.81
2019-02-16T20:42:46.472Z,65.11
2019-02-16T20:45:22.547Z,64.72
2019-02-16T20:47:54.228Z,65.22
2019-02-16T20:50:40.706Z,64.51
2019-02-16T20:53:13.190Z,64.62
2019-02-16T20:55:48.040Z,64.42
2019-02-16T20:58:18.264Z,64.86
2019-02-16T21:00:48.535Z,65.10
2019-02-16T21:03:28.992Z,65.08
2019-02-16T21:06:14.221Z,65.32
2019-02-16T21:09:00.551Z,65.08
2019-02-16T21:11:36.720Z,65.17
2019-02-16T21:14:20.158Z,64.80
2019-02-16T21:16:58.327Z,65.26
2019-02-16T21:19:28.513Z,65.62
2019-02-16T21:22:14.591Z,65.28
2019-02-16T21:24:50.409Z,65.06
2019-02-16T21:27:22.153Z,65.00
2019-02-16T21:29:54.214Z,65.55
2019-02-16T21:32:27.349Z,65.77
2019-02-16T21:35:03.236Z,65.96
2019-02-16T21:37:49.544Z,66.51
2019-02-16T21:40:25.504Z,66.93
2019-02-16T21:43:00.095Z,66.30
2019-02-16T21:45:41.978Z,66.43
2019-02-16T21:48:23.927Z,66.14
2019-02-16T21:50:54.070Z,66.55
2019-02-16T21:53:27.164Z,66.74
2019-02-16T21:56:10.207Z,66.85
2019-02-16T21:58:47.841Z,66.11
2019-02-16T22:01:19.614Z,66.37
2019-02-16T22:03:52.742Z,65.97
2019-02-16T22:06:23.509Z,66.25
2019-02-16T22:08:54.647Z,66.35
2019-02-16T22:11:38.328Z,66.11
2019-02-16T22:14:06.975Z,66.28
2019-02-16T22:16:38.696Z,66.21
2019-02-16T22:19:11.155Z,67.11
2019-02-16T22:21:39.716Z,67.50
2019-02-16T22:24:10.046Z,67.85
2019-02-16T22:26:38.607Z,67.13
2019-02-16T22:29:09.641Z,67.13
2019-02-16T22:31:41.356Z,67.34
2019-02-16T22:34:11.451Z,67.68
2019-02-16T22:36:45.225Z,67.68
2019-02-16T22:39:13.695Z,67.31
2019-02-16T22:41:43.796Z,67.13
2019-02-16T22:44:17.634Z,67.24
2019-02-16T22:46:48.599Z,67.35
2019-02-16T22:49:17.170Z,67.88
2019-02-16T22:51:47.359Z,67.86
2019-02-16T22:54:16.246Z,67.92
2019-02-16T22:56:44.814Z,67.63
2019-02-16T22:59:16.131Z,67.86
2019-02-16T23:01:47.849Z,67.86
2019-02-16T23:04:18.047Z,67.92
2019-02-16T23:06:46.693Z,67.89
2019-02-16T23:09:28.479Z,67.49
2019-02-16T23:11:57.190Z,67.49
2019-02-16T23:14:28.045Z,67.62
2019-02-16T23:16:56.767Z,68.07
2019-02-16T23:19:27.129Z,68.07
2019-02-16T23:21:57.301Z,68.26
2019-02-16T23:24:27.945Z,67.94
2019-02-16T23:26:58.047Z,67.71
2019-02-16T23:29:28.239Z,67.43
2019-02-16T23:31:57.365Z,67.43
2019-02-16T23:34:29.094Z,67.57
2019-02-16T23:36:57.727Z,67.37
2019-02-16T23:39:28.031Z,67.22
2019-02-16T23:42:00.367Z,67.35
2019-02-16T23:44:29.300Z,68.00
2019-02-16T23:46:57.919Z,68.00
2019-02-16T23:49:26.761Z,67.89
2019-02-16T23:51:56.439Z,68.04
2019-02-16T23:54:25.080Z,67.96
2019-02-16T23:56:53.706Z,68.27
2019-02-16T23:59:23.970Z,68.44
